createdAt,value
2017-06-28T00:00:45.937Z,82.70
2017-06-28T00:03:13.453Z,82.30
2017-06-28T00:05:40.936Z,82.10
2017-06-28T00:08:08.431Z,82.20
2017-06-28T00:10:35.965Z,82.50
2017-06-28T00:13:03.496Z,82.10
2017-06-28T00:15:31.044Z,82.50
2017-06-28T00:17:58.565Z,82.30
2017-06-28T00:20:26.848Z,82.10
2017-06-28T00:22:54.332Z,82.50
2017-06-28T00:25:21.932Z,82.90
2017-06-28T00:27:49.476Z,83.00
2017-06-28T00:30:17.020Z,82.80
2017-06-28T00:32:44.764Z,83.10
2017-06-28T00:35:12.312Z,83.30
2017-06-28T00:37:39.808Z,83.30
2017-06-28T00:40:07.375Z,83.60
2017-06-28T00:42:35.643Z,83.70
2017-06-28T00:45:03.932Z,83.70
2017-06-28T00:47:31.488Z,83.60
2017-06-28T00:49:59.016Z,83.80
2017-06-28T00:52:26.499Z,84.10
2017-06-28T00:54:54.196Z,84.40
2017-06-28T00:57:21.739Z,84.10
2017-06-28T00:59:49.276Z,84.40
2017-06-28T01:02:17.544Z,84.40
2017-06-28T01:04:45.023Z,84.40
2017-06-28T01:07:12.524Z,84.10
2017-06-28T01:09:40.277Z,84.30
2017-06-28T01:12:07.783Z,84.20
2017-06-28T01:14:35.280Z,84.00
2017-06-28T01:17:02.953Z,84.10
2017-06-28T01:19:30.451Z,84.20
2017-06-28T01:21:57.994Z,84.20
2017-06-28T01:24:25.508Z,84.40
2017-06-28T01:26:53.085Z,84.30
2017-06-28T01:29:20.598Z,84.40
2017-06-28T01:31:48.098Z,84.50
2017-06-28T01:34:15.609Z,84.90
2017-06-28T01:36:43.153Z,84.70
2017-06-28T01:39:10.696Z,84.90
2017-06-28T01:41:38.192Z,84.70
2017-06-28T01:44:05.684Z,84.80
2017-06-28T01:46:33.199Z,84.70
2017-06-28T01:49:00.769Z,84.70
2017-06-28T01:51:28.290Z,85.00
2017-06-28T01:53:56.573Z,85.00
2017-06-28T01:56:24.111Z,85.00
2017-06-28T01:58:51.661Z,85.00
2017-06-28T02:01:19.144Z,84.90
2017-06-28T02:03:46.641Z,84.90
2017-06-28T02:06:14.188Z,85.00
2017-06-28T02:08:41.668Z,85.00
2017-06-28T02:11:09.157Z,85.00
2017-06-28T02:13:36.689Z,85.30
2017-06-28T02:16:04.954Z,86.20
2017-06-28T02:18:33.237Z,85.50
2017-06-28T02:21:00.784Z,85.10
2017-06-28T02:23:28.269Z,85.20
2017-06-28T02:25:55.764Z,85.20
2017-06-28T02:28:23.306Z,85.30
2017-06-28T02:30:50.848Z,85.30
2017-06-28T02:33:18.392Z,85.20
2017-06-28T02:35:45.880Z,85.20
2017-06-28T02:38:13.397Z,85.20
2017-06-28T02:40:40.930Z,85.00
2017-06-28T02:43:08.420Z,85.40
2017-06-28T02:45:35.965Z,85.30
2017-06-28T02:48:03.456Z,85.70
2017-06-28T02:50:30.935Z,85.80
2017-06-28T02:52:58.633Z,85.60
2017-06-28T02:55:26.185Z,85.70
2017-06-28T02:57:53.684Z,85.00
2017-06-28T03:00:21.164Z,85.30
2017-06-28T03:02:48.639Z,85.10
2017-06-28T03:05:16.164Z,85.10
2017-06-28T03:07:43.640Z,85.90
2017-06-28T03:10:11.148Z,85.00
2017-06-28T03:12:38.888Z,85.10
2017-06-28T03:15:06.382Z,85.30
2017-06-28T03:17:33.889Z,85.40
2017-06-28T03:20:01.416Z,85.00
2017-06-28T03:22:28.963Z,85.00
2017-06-28T03:24:56.444Z,85.20
2017-06-28T03:27:24.144Z,84.90
2017-06-28T03:29:51.692Z,84.60
2017-06-28T03:32:19.168Z,84.60
2017-06-28T03:34:46.864Z,84.10
2017-06-28T03:37:15.140Z,84.20
2017-06-28T03:39:42.620Z,84.20
2017-06-28T03:42:10.120Z,84.10
2017-06-28T03:44:37.600Z,84.10
2017-06-28T03:47:05.317Z,84.20
2017-06-28T03:49:32.805Z,84.20
2017-06-28T03:52:00.288Z,84.00
2017-06-28T03:54:28.765Z,82.80
2017-06-28T03:56:56.240Z,82.80
2017-06-28T03:59:23.775Z,83.30
2017-06-28T04:01:51.492Z,83.00
2017-06-28T04:04:19.037Z,82.80
2017-06-28T04:06:46.613Z,83.30
2017-06-28T04:09:14.225Z,82.90
2017-06-28T04:11:41.768Z,82.80
2017-06-28T04:14:09.261Z,82.70
2017-06-28T04:16:36.780Z,82.50
2017-06-28T04:19:04.282Z,82.70
2017-06-28T04:21:32.633Z,82.30
2017-06-28T04:24:00.152Z,82.40
2017-06-28T04:26:27.644Z,82.30
2017-06-28T04:28:55.190Z,82.00
2017-06-28T04:31:22.937Z,82.00
2017-06-28T04:33:50.480Z,82.00
2017-06-28T04:36:18.030Z,81.80
2017-06-28T04:38:45.772Z,81.50
2017-06-28T04:41:13.318Z,81.90
2017-06-28T04:43:40.880Z,82.10
2017-06-28T04:46:08.405Z,82.20
2017-06-28T04:48:35.958Z,82.20
2017-06-28T04:51:03.498Z,82.00
2017-06-28T04:53:30.975Z,82.00
2017-06-28T04:55:58.448Z,81.90
2017-06-28T04:58:26.017Z,81.70
2017-06-28T05:00:53.568Z,81.80
2017-06-28T05:03:21.053Z,82.10
2017-06-28T05:05:48.532Z,81.70
2017-06-28T05:08:16.895Z,82.50
2017-06-28T05:10:45.144Z,82.10
2017-06-28T05:13:12.632Z,82.10
2017-06-28T05:15:40.163Z,82.00
2017-06-28T05:18:07.668Z,82.00
2017-06-28T05:20:35.152Z,82.20
2017-06-28T05:23:02.684Z,82.00
2017-06-28T05:25:30.224Z,82.10
2017-06-28T05:27:57.773Z,82.40
2017-06-28T05:30:25.287Z,82.60
2017-06-28T05:32:53.540Z,83.60
2017-06-28T05:35:21.016Z,82.80
2017-06-28T05:37:48.555Z,82.90
2017-06-28T05:40:16.032Z,82.90
2017-06-28T05:42:43.745Z,83.00
2017-06-28T05:45:11.232Z,83.10
2017-06-28T05:47:38.727Z,82.80
2017-06-28T05:50:06.481Z,82.30
2017-06-28T05:52:33.981Z,82.50
2017-06-28T05:55:01.464Z,83.20
2017-06-28T05:57:28.985Z,83.80
2017-06-28T05:59:57.231Z,84.50
2017-06-28T06:02:24.811Z,84.50
2017-06-28T06:04:52.356Z,85.10
2017-06-28T06:07:19.900Z,84.60
2017-06-28T06:09:47.440Z,85.00
2017-06-28T06:12:14.984Z,84.70
2017-06-28T06:14:42.529Z,84.30
2017-06-28T06:17:10.058Z,82.90
2017-06-28T06:19:38.330Z,81.90
2017-06-28T06:22:05.883Z,81.80
2017-06-28T06:24:33.437Z,82.20
2017-06-28T06:27:00.960Z,81.20
2017-06-28T06:29:28.505Z,81.60
2017-06-28T06:31:56.048Z,82.20
2017-06-28T06:34:23.588Z,82.30
2017-06-28T06:36:51.140Z,83.50
2017-06-28T06:39:18.681Z,84.00
2017-06-28T06:41:46.220Z,84.30
2017-06-28T06:44:13.766Z,85.20
2017-06-28T06:46:41.284Z,85.50
2017-06-28T06:49:09.529Z,86.00
2017-06-28T06:51:37.033Z,85.90
2017-06-28T06:54:04.533Z,84.90
2017-06-28T06:56:32.812Z,84.50
2017-06-28T06:59:00.359Z,84.40
2017-06-28T07:01:27.839Z,83.70
2017-06-28T07:03:55.352Z,84.30
2017-06-28T07:06:22.884Z,83.80
2017-06-28T07:08:50.365Z,81.80
2017-06-28T07:11:17.897Z,82.10
2017-06-28T07:13:45.372Z,82.20
2017-06-28T07:16:12.956Z,83.00
2017-06-28T07:18:40.451Z,83.20
2017-06-28T07:21:07.948Z,83.60
2017-06-28T07:23:35.487Z,82.60
2017-06-28T07:26:03.452Z,83.10
2017-06-28T07:28:30.933Z,81.90
2017-06-28T07:30:58.422Z,81.10
2017-06-28T07:33:25.936Z,80.20
2017-06-28T07:35:53.416Z,80.30
2017-06-28T07:38:20.952Z,79.50
2017-06-28T07:40:48.497Z,76.60
2017-06-28T07:43:15.976Z,75.60
2017-06-28T07:45:43.465Z,76.70
2017-06-28T07:48:11.712Z,76.80
2017-06-28T07:50:39.212Z,76.80
2017-06-28T07:53:06.712Z,74.70
2017-06-28T07:55:34.992Z,74.10
2017-06-28T07:58:02.496Z,74.10
2017-06-28T08:00:30.063Z,73.10
2017-06-28T08:02:58.307Z,72.20
2017-06-28T08:05:26.559Z,71.60
2017-06-28T08:07:54.141Z,72.20
2017-06-28T08:10:21.672Z,71.60
2017-06-28T08:12:50.039Z,71.10
2017-06-28T08:15:17.580Z,70.90
2017-06-28T08:17:45.056Z,70.30
2017-06-28T08:20:12.548Z,70.40
2017-06-28T08:22:40.809Z,70.00
2017-06-28T08:25:09.321Z,70.40
2017-06-28T08:27:36.804Z,70.30
2017-06-28T08:30:04.307Z,69.60
2017-06-28T08:32:31.829Z,70.00
2017-06-28T08:34:59.476Z,69.50
2017-06-28T08:37:26.964Z,69.90
2017-06-28T08:39:54.440Z,69.60
2017-06-28T08:42:22.700Z,69.70
2017-06-28T08:44:50.972Z,67.20
2017-06-28T08:47:18.516Z,67.10
2017-06-28T08:49:46.059Z,67.70
2017-06-28T08:52:13.605Z,67.40
2017-06-28T08:54:41.151Z,66.90
2017-06-28T08:57:08.646Z,67.30
2017-06-28T08:59:36.145Z,65.10
2017-06-28T09:02:03.671Z,65.30
2017-06-28T09:04:31.949Z,63.30
2017-06-28T09:06:59.431Z,63.10
2017-06-28T09:09:26.922Z,63.60
2017-06-28T09:11:54.464Z,62.90
2017-06-28T09:14:22.005Z,62.40
2017-06-28T09:16:49.552Z,61.90
2017-06-28T09:19:17.028Z,62.90
2017-06-28T09:21:44.560Z,60.70
2017-06-28T09:24:12.076Z,60.70
2017-06-28T09:26:39.637Z,59.20
2017-06-28T09:29:07.279Z,59.20
2017-06-28T09:31:34.768Z,59.90
2017-06-28T09:34:02.357Z,59.20
2017-06-28T09:36:29.895Z,59.80
2017-06-28T09:38:57.440Z,59.80
2017-06-28T09:41:24.985Z,59.10
2017-06-28T09:43:52.500Z,59.70
2017-06-28T09:46:20.078Z,59.20
2017-06-28T09:48:47.612Z,59.30
2017-06-28T09:51:15.104Z,58.60
2017-06-28T09:53:42.580Z,59.40
2017-06-28T09:56:10.860Z,57.90
2017-06-28T09:58:38.344Z,57.90
2017-06-28T10:01:05.844Z,57.80
2017-06-28T10:03:33.417Z,57.80
2017-06-28T10:06:00.931Z,58.00
2017-06-28T10:08:28.485Z,57.70
2017-06-28T10:10:56.225Z,57.40
2017-06-28T10:13:23.773Z,57.60
2017-06-28T10:15:51.244Z,58.30
2017-06-28T10:18:18.749Z,58.70
2017-06-28T10:20:46.312Z,59.30
2017-06-28T10:23:13.837Z,58.60
2017-06-28T10:25:41.325Z,59.30
2017-06-28T10:28:08.850Z,61.40
2017-06-28T10:30:36.341Z,63.40
2017-06-28T10:33:03.821Z,64.60
2017-06-28T10:35:31.352Z,65.80
2017-06-28T10:37:58.833Z,66.80
2017-06-28T10:40:26.346Z,67.10
2017-06-28T10:42:53.870Z,68.60
2017-06-28T10:45:22.147Z,70.90
2017-06-28T10:47:49.680Z,70.90
2017-06-28T10:50:17.260Z,72.30
2017-06-28T10:52:44.771Z,72.30
2017-06-28T10:55:12.316Z,72.80
2017-06-28T10:57:39.847Z,74.10
2017-06-28T11:00:08.120Z,75.80
2017-06-28T11:02:35.627Z,75.80
2017-06-28T11:05:03.182Z,77.10
2017-06-28T11:07:31.428Z,78.10
2017-06-28T11:09:58.916Z,77.90
2017-06-28T11:12:26.457Z,78.50
2017-06-28T11:14:53.990Z,79.20
2017-06-28T11:17:21.472Z,79.40
2017-06-28T11:19:48.995Z,80.20
2017-06-28T11:22:16.538Z,79.60
2017-06-28T11:24:44.021Z,79.70
2017-06-28T11:27:11.707Z,80.10
2017-06-28T11:29:39.190Z,80.30
2017-06-28T11:32:06.676Z,78.60
2017-06-28T11:34:35.121Z,77.70
2017-06-28T11:37:02.862Z,77.60
2017-06-28T11:39:30.351Z,77.10
2017-06-28T11:41:57.895Z,76.30
2017-06-28T11:44:25.436Z,74.70
2017-06-28T11:46:52.976Z,74.80
2017-06-28T11:49:20.521Z,73.00
2017-06-28T11:51:48.093Z,73.20
2017-06-28T11:54:15.578Z,71.90
2017-06-28T11:56:43.077Z,72.10
2017-06-28T11:59:10.597Z,71.70
2017-06-28T12:01:38.131Z,70.80
2017-06-28T12:04:05.613Z,71.60
2017-06-28T12:06:33.129Z,70.80
2017-06-28T12:09:00.664Z,71.00
2017-06-28T12:11:28.209Z,71.80
2017-06-28T12:13:55.857Z,71.00
2017-06-28T12:16:23.335Z,71.40
2017-06-28T12:18:50.940Z,71.40
2017-06-28T12:21:18.428Z,71.50
2017-06-28T12:23:45.923Z,72.30
2017-06-28T12:26:13.463Z,73.10
2017-06-28T12:28:40.947Z,74.60
2017-06-28T12:31:08.770Z,75.00
2017-06-28T12:33:36.268Z,75.50
2017-06-28T12:36:04.770Z,77.50
2017-06-28T12:38:32.298Z,78.20
2017-06-28T12:41:00.579Z,80.10
2017-06-28T12:43:28.056Z,80.10
2017-06-28T12:45:55.560Z,79.90
2017-06-28T12:48:23.257Z,79.10
2017-06-28T12:50:50.849Z,80.10
2017-06-28T12:53:18.397Z,80.70
2017-06-28T12:55:45.937Z,81.50
2017-06-28T12:58:13.479Z,81.70
2017-06-28T13:00:41.033Z,81.90
2017-06-28T13:03:08.524Z,82.30
2017-06-28T13:05:36.043Z,83.30
2017-06-28T13:08:03.572Z,83.50
2017-06-28T13:10:31.053Z,83.30
2017-06-28T13:12:58.740Z,82.10
2017-06-28T13:15:26.290Z,82.10
2017-06-28T13:17:53.828Z,81.10
2017-06-28T13:20:21.320Z,80.40
2017-06-28T13:22:48.802Z,80.20
2017-06-28T13:25:17.275Z,79.50
2017-06-28T13:27:44.752Z,79.50
2017-06-28T13:30:12.262Z,78.80
2017-06-28T13:32:39.787Z,79.40
2017-06-28T13:35:08.094Z,78.30
2017-06-28T13:37:35.577Z,78.30
2017-06-28T13:40:03.081Z,78.80
2017-06-28T13:42:30.622Z,77.00
2017-06-28T13:44:58.137Z,76.50
2017-06-28T13:47:25.676Z,75.00
2017-06-28T13:49:53.192Z,73.50
2017-06-28T13:52:20.660Z,72.80
2017-06-28T13:54:48.136Z,72.20
2017-06-28T13:57:15.745Z,70.00
2017-06-28T13:59:44.009Z,66.20
2017-06-28T14:02:11.484Z,66.20
2017-06-28T14:04:39.100Z,64.50
2017-06-28T14:07:06.749Z,63.60
2017-06-28T14:09:34.241Z,65.00
2017-06-28T14:12:01.938Z,62.90
2017-06-28T14:14:29.477Z,59.90
2017-06-28T14:16:56.948Z,56.90
2017-06-28T14:19:24.669Z,54.70
2017-06-28T14:21:52.208Z,54.70
2017-06-28T14:24:19.748Z,54.60
2017-06-28T14:26:48.112Z,55.20
2017-06-28T14:29:16.352Z,56.40
2017-06-28T14:31:44.589Z,57.80
2017-06-28T14:34:12.176Z,57.30
2017-06-28T14:36:39.657Z,59.00
2017-06-28T14:39:08.115Z,59.80
2017-06-28T14:41:35.836Z,62.20
2017-06-28T14:44:03.321Z,64.80
2017-06-28T14:46:30.824Z,68.20
2017-06-28T14:48:58.328Z,71.50
2017-06-28T14:51:26.619Z,81.70
2017-06-28T14:53:54.093Z,81.60
2017-06-28T14:56:21.609Z,85.80
2017-06-28T14:58:49.149Z,90.00
2017-06-28T15:01:16.688Z,90.70
2017-06-28T15:03:44.959Z,92.80
2017-06-28T15:06:12.501Z,92.80
2017-06-28T15:08:40.062Z,92.80
2017-06-28T15:11:07.550Z,93.00
2017-06-28T15:13:35.035Z,92.80
2017-06-28T15:16:02.581Z,91.60
2017-06-28T15:18:30.065Z,91.30
2017-06-28T15:20:57.536Z,91.90
2017-06-28T15:23:25.816Z,91.80
2017-06-28T15:25:53.292Z,91.70
2017-06-28T15:28:20.795Z,92.90
2017-06-28T15:30:48.269Z,91.40
2017-06-28T15:33:15.783Z,92.10
2017-06-28T15:35:43.330Z,93.20
2017-06-28T15:38:10.815Z,93.80
2017-06-28T15:40:38.308Z,91.90
2017-06-28T15:43:05.862Z,92.10
2017-06-28T15:45:33.393Z,92.40
2017-06-28T15:48:00.881Z,92.50
2017-06-28T15:50:28.525Z,92.50
2017-06-28T15:52:56.046Z,92.30
2017-06-28T15:55:23.576Z,92.20
2017-06-28T15:57:51.097Z,92.30
2017-06-28T16:00:19.376Z,92.00
2017-06-28T16:02:46.916Z,92.00
2017-06-28T16:05:14.400Z,92.80
2017-06-28T16:07:41.908Z,92.40
2017-06-28T16:10:09.462Z,92.00
2017-06-28T16:12:36.977Z,92.70
2017-06-28T16:15:05.260Z,91.90
2017-06-28T16:23:33.725Z,91.00
2017-06-28T16:26:01.197Z,90.90
2017-06-28T16:28:28.705Z,90.90
2017-06-28T16:30:56.244Z,90.90
2017-06-28T16:33:23.793Z,91.30
2017-06-28T16:35:51.338Z,91.30
2017-06-28T16:38:18.841Z,90.80
2017-06-28T16:40:46.425Z,91.00
2017-06-28T16:43:13.968Z,91.80
2017-06-28T16:45:41.468Z,91.30
2017-06-28T16:48:09.066Z,91.50
2017-06-28T16:50:36.624Z,91.80
2017-06-28T16:53:04.131Z,91.60
2017-06-28T16:55:31.638Z,92.00
2017-06-28T16:57:59.224Z,91.00
2017-06-28T17:00:26.705Z,91.30
2017-06-28T17:02:54.221Z,91.30
2017-06-28T17:05:21.757Z,91.30
2017-06-28T17:07:49.296Z,91.40
2017-06-28T17:10:17.313Z,90.60
2017-06-28T17:12:44.955Z,90.40
2017-06-28T17:15:12.452Z,90.80
2017-06-28T17:17:40.008Z,90.20
2017-06-28T17:20:07.529Z,90.50
2017-06-28T17:22:35.061Z,90.20
2017-06-28T17:25:02.733Z,90.10
2017-06-28T17:27:30.228Z,90.50
2017-06-28T17:29:57.793Z,90.20
2017-06-28T17:32:26.068Z,90.20
2017-06-28T17:34:53.576Z,90.10
2017-06-28T17:37:21.869Z,90.30
2017-06-28T17:39:49.411Z,90.30
2017-06-28T17:42:16.888Z,90.50
2017-06-28T17:44:44.396Z,89.40
2017-06-28T17:47:11.936Z,90.20
2017-06-28T17:49:39.419Z,90.60
2017-06-28T17:52:07.009Z,90.10
2017-06-28T17:54:34.545Z,90.60
2017-06-28T17:57:02.825Z,90.50
2017-06-28T17:59:30.571Z,90.50
2017-06-28T18:01:58.819Z,91.10
2017-06-28T18:04:27.323Z,91.30
2017-06-28T18:06:54.936Z,91.00
2017-06-28T18:09:23.318Z,90.60
2017-06-28T18:11:50.799Z,90.60
2017-06-28T18:14:18.276Z,90.20
2017-06-28T18:16:46.568Z,90.30
2017-06-28T18:19:14.069Z,90.20
2017-06-28T18:21:41.554Z,90.00
2017-06-28T18:24:09.953Z,89.40
2017-06-28T18:26:37.456Z,89.30
2017-06-28T18:29:04.960Z,89.60
2017-06-28T18:31:32.652Z,89.10
2017-06-28T18:34:01.288Z,88.20
2017-06-28T18:36:29.583Z,88.60
2017-06-28T18:38:57.108Z,88.60
2017-06-28T18:41:24.661Z,88.60
2017-06-28T18:43:52.403Z,89.10
2017-06-28T18:46:19.884Z,90.40
2017-06-28T18:48:47.384Z,89.90
2017-06-28T18:51:15.144Z,90.10
2017-06-28T18:53:42.620Z,90.20
2017-06-28T18:56:10.109Z,90.10
2017-06-28T18:58:37.623Z,90.10
2017-06-28T19:01:05.111Z,90.40
2017-06-28T19:03:32.744Z,90.90
2017-06-28T19:06:00.248Z,91.10
2017-06-28T19:08:27.729Z,91.10
2017-06-28T19:10:55.977Z,90.90
2017-06-28T19:13:24.248Z,91.00
2017-06-28T19:15:52.512Z,91.20
2017-06-28T19:18:20.882Z,91.20
2017-06-28T19:20:48.421Z,91.20
2017-06-28T19:23:15.912Z,91.20
2017-06-28T19:25:43.624Z,91.50
2017-06-28T19:28:11.108Z,91.70
2017-06-28T19:30:38.672Z,91.90
2017-06-28T19:33:06.754Z,91.90
2017-06-28T19:35:34.267Z,91.90
2017-06-28T19:38:02.683Z,92.20
2017-06-28T19:40:30.425Z,92.20
2017-06-28T19:42:57.952Z,92.20
2017-06-28T19:45:25.493Z,92.50
2017-06-28T19:47:53.041Z,92.40
2017-06-28T19:50:20.528Z,92.50
2017-06-28T19:52:48.016Z,92.90
2017-06-28T19:55:15.501Z,92.90
2017-06-28T19:57:43.025Z,93.00
2017-06-28T20:00:10.549Z,93.00
2017-06-28T20:02:38.057Z,93.00
2017-06-28T20:05:05.561Z,92.80
2017-06-28T20:07:33.326Z,92.60
2017-06-28T20:10:00.880Z,92.90
2017-06-28T20:12:28.468Z,92.80
2017-06-28T20:14:56.221Z,93.00
2017-06-28T20:17:23.765Z,93.00
2017-06-28T20:19:51.308Z,92.90
2017-06-28T20:22:19.052Z,93.00
2017-06-28T20:24:46.534Z,93.00
2017-06-28T20:27:14.041Z,92.90
2017-06-28T20:29:41.561Z,92.90
2017-06-28T20:32:09.817Z,92.90
2017-06-28T20:34:37.300Z,92.90
2017-06-28T20:37:04.831Z,92.80
2017-06-28T20:39:32.361Z,92.70
2017-06-28T20:42:00.801Z,92.70
2017-06-28T20:44:28.588Z,92.70
2017-06-28T20:46:56.073Z,92.90
2017-06-28T20:49:23.572Z,92.90
2017-06-28T20:51:51.139Z,93.00
2017-06-28T20:54:18.620Z,92.60
2017-06-28T20:56:46.203Z,92.80
2017-06-28T20:59:13.749Z,93.00
2017-06-28T21:01:41.244Z,93.00
2017-06-28T21:04:08.797Z,92.90
2017-06-28T21:06:36.293Z,92.60
2017-06-28T21:09:03.804Z,92.70
2017-06-28T21:11:31.363Z,92.80
2017-06-28T21:13:58.904Z,92.80
2017-06-28T21:16:26.387Z,93.00
2017-06-28T21:18:53.885Z,92.90
2017-06-28T21:21:21.430Z,93.00
2017-06-28T21:23:48.944Z,93.00
2017-06-28T21:26:16.430Z,92.90
2017-06-28T21:28:43.965Z,92.70
2017-06-28T21:31:11.501Z,92.70
2017-06-28T21:33:39.019Z,92.50
2017-06-28T21:36:07.285Z,92.70
2017-06-28T21:38:35.632Z,93.00
2017-06-28T21:41:03.175Z,93.00
2017-06-28T21:43:30.756Z,92.90
2017-06-28T21:45:58.299Z,93.00
2017-06-28T21:48:25.780Z,93.10
2017-06-28T21:50:53.384Z,93.10
2017-06-28T21:53:20.932Z,93.10
2017-06-28T21:55:48.473Z,93.00
2017-06-28T21:58:16.020Z,93.00
2017-06-28T22:00:43.558Z,93.20
2017-06-28T22:03:11.204Z,93.00
2017-06-28T22:05:38.961Z,93.00
2017-06-28T22:08:06.462Z,93.00
2017-06-28T22:10:33.963Z,92.80
2017-06-28T22:13:01.585Z,92.50
2017-06-28T22:15:29.131Z,92.40
2017-06-28T22:17:56.676Z,92.60
2017-06-28T22:20:36.084Z,92.40
2017-06-28T22:23:03.648Z,92.30
2017-06-28T22:25:31.181Z,92.50
2017-06-28T22:27:58.724Z,92.50
2017-06-28T22:30:26.208Z,92.30
2017-06-28T22:32:53.808Z,92.50
2017-06-28T22:35:21.352Z,92.20
2017-06-28T22:37:48.897Z,92.30
2017-06-28T22:40:16.436Z,92.40
2017-06-28T22:42:43.980Z,92.50
2017-06-28T22:45:11.748Z,92.20
2017-06-28T22:47:39.254Z,92.40
2017-06-28T22:50:07.532Z,92.40
2017-06-28T22:52:35.041Z,92.40
2017-06-28T22:55:02.745Z,92.90
2017-06-28T22:57:30.471Z,92.70
2017-06-28T22:59:58.019Z,92.30
2017-06-28T23:02:25.507Z,92.60
2017-06-28T23:04:53.208Z,92.30
2017-06-28T23:07:20.751Z,92.40
2017-06-28T23:09:48.292Z,92.70
2017-06-28T23:12:15.813Z,92.90
2017-06-28T23:14:44.092Z,93.00
2017-06-28T23:17:11.740Z,93.00
2017-06-28T23:19:39.368Z,92.90
2017-06-28T23:22:06.881Z,93.10
2017-06-28T23:24:34.397Z,93.10
2017-06-28T23:27:02.120Z,93.10
2017-06-28T23:29:29.664Z,93.00
2017-06-28T23:31:57.152Z,93.00
2017-06-28T23:34:24.653Z,93.00
2017-06-28T23:36:52.323Z,92.90
2017-06-28T23:39:19.813Z,93.00
2017-06-28T23:41:48.096Z,92.50
2017-06-28T23:44:15.640Z,92.50
2017-06-28T23:46:43.187Z,92.60
2017-06-28T23:49:10.732Z,92.50
2017-06-28T23:51:38.269Z,92.70
2017-06-28T23:54:05.780Z,92.60
2017-06-28T23:56:34.092Z,92.60
2017-06-28T23:59:01.584Z,92.60
